Time;durP1;ratioP1;P1;durP2;ratioP2;P2;SDS_P1;SDS_P2;PMS_P1;PMS_P2;Temp;Humidity;BMP_temperature;BMP_pressure;BME280_temperature;BME280_humidity;BME280_pressure;Samples;Min_cycle;Max_cycle;Signal;HPM_P1;HPM_P2
2023/09/13 00:00:57;;;;;;;20.90;18.70;;;17.80;99.90;;;;;;4989135;28;20225;-53
2023/09/13 00:03:23;;;;;;;23.03;18.77;;;17.70;99.90;;;;;;4993311;28;20189;-54
2023/09/13 00:05:50;;;;;;;21.57;18.40;;;17.70;99.90;;;;;;4994475;28;20213;-49
2023/09/13 00:08:21;;;;;;;19.63;17.63;;;17.80;99.90;;;;;;4974397;28;20904;-50
2023/09/13 00:10:47;;;;;;;21.50;19.20;;;17.80;99.90;;;;;;4993389;28;20197;-49
2023/09/13 00:13:14;;;;;;;22.40;19.10;;;17.90;99.90;;;;;;4961689;28;20883;-54
2023/09/13 00:15:43;;;;;;;21.47;19.17;;;17.90;99.90;;;;;;4995862;28;20310;-50
2023/09/13 00:18:14;;;;;;;20.57;18.37;;;17.90;99.90;;;;;;4989284;28;20201;-54
2023/09/13 00:20:42;;;;;;;19.17;16.30;;;17.90;99.90;;;;;;4993527;28;20198;-48
2023/09/13 00:23:09;;;;;;;20.13;18.03;;;18.00;99.90;;;;;;4980515;28;20221;-50
2023/09/13 00:25:36;;;;;;;19.73;17.53;;;18.00;99.90;;;;;;4985219;28;20205;-53
2023/09/13 00:28:03;;;;;;;21.03;18.37;;;18.00;99.90;;;;;;4969805;28;20256;-52
2023/09/13 00:30:30;;;;;;;23.03;18.90;;;18.00;99.90;;;;;;4984232;28;20602;-54
2023/09/13 00:32:59;;;;;;;21.00;18.73;;;;;;;;;;4983445;28;20252;-54
2023/09/13 00:35:28;;;;;;;22.30;19.90;;;17.70;99.90;;;;;;4983784;28;20263;-55
2023/09/13 00:37:54;;;;;;;21.80;19.53;;;18.00;99.90;;;;;;4983982;28;20197;-49
2023/09/13 00:40:21;;;;;;;22.50;19.63;;;17.90;99.90;;;;;;4985856;28;20868;-54
2023/09/13 00:42:48;;;;;;;25.07;21.07;;;17.90;99.90;;;;;;4989176;28;20707;-53
2023/09/13 00:45:15;;;;;;;23.87;20.10;;;18.00;99.90;;;;;;4965681;28;20213;-55
2023/09/13 00:47:43;;;;;;;22.10;19.73;;;17.90;99.90;;;;;;4984860;28;20209;-52
2023/09/13 00:50:14;;;;;;;23.50;19.77;;;17.90;99.90;;;;;;4995605;28;20193;-55
2023/09/13 00:52:43;;;;;;;26.33;21.20;;;17.90;99.90;;;;;;4978607;28;20292;-52
2023/09/13 00:55:12;;;;;;;23.90;19.60;;;17.90;99.90;;;;;;4985854;28;20993;-53
2023/09/13 00:57:38;;;;;;;26.93;20.47;;;18.00;99.90;;;;;;4996815;28;20259;-53
2023/09/13 01:00:10;;;;;;;23.80;21.20;;;18.20;99.90;;;;;;4972074;28;20255;-53
2023/09/13 01:02:40;;;;;;;23.17;19.80;;;18.20;99.90;;;;;;4995314;28;20204;-50
2023/09/13 01:05:08;;;;;;;26.57;21.70;;;17.90;99.90;;;;;;4988120;28;20213;-54
2023/09/13 01:07:36;;;;;;;24.33;20.80;;;18.20;99.90;;;;;;4994688;28;20267;-51
2023/09/13 01:10:04;;;;;;;25.30;21.30;;;18.10;99.90;;;;;;4977120;28;20200;-52
2023/09/13 01:12:32;;;;;;;26.67;22.10;;;18.10;99.90;;;;;;4989548;28;20256;-54
2023/09/13 01:14:59;;;;;;;25.80;21.33;;;18.10;99.90;;;;;;4962867;28;20256;-53
2023/09/13 01:17:37;;;;;;;27.03;21.13;;;18.10;99.90;;;;;;4986527;28;20197;-54
2023/09/13 01:20:09;;;;;;;27.17;21.50;;;18.10;99.90;;;;;;4982884;28;20197;-51
2023/09/13 01:23:05;;;;;;;28.30;21.73;;;18.00;99.90;;;;;;4982259;28;20237;-49
2023/09/13 01:25:55;;;;;;;29.20;21.00;;;18.00;99.90;;;;;;4990523;28;20220;-54
2023/09/13 01:28:38;;;;;;;30.23;21.80;;;18.00;99.90;;;;;;4987969;28;20295;-52
2023/09/13 01:31:07;;;;;;;31.10;21.37;;;17.90;99.90;;;;;;4964306;28;20336;-52
2023/09/13 01:33:34;;;;;;;29.93;21.30;;;17.90;99.90;;;;;;4981257;28;20276;-52
2023/09/13 01:36:02;;;;;;;30.87;21.43;;;17.90;99.90;;;;;;4984278;28;20205;-50
2023/09/13 01:38:29;;;;;;;28.13;21.37;;;17.90;99.90;;;;;;4983503;28;20291;-55
2023/09/13 01:41:03;;;;;;;31.37;22.43;;;17.90;99.90;;;;;;4983873;28;20621;-53
2023/09/13 01:43:31;;;;;;;28.70;21.37;;;17.90;99.90;;;;;;4981449;28;20271;-55
2023/09/13 01:46:00;;;;;;;30.37;20.93;;;17.90;99.90;;;;;;4964911;28;20227;-52
2023/09/13 01:48:28;;;;;;;31.37;21.50;;;17.90;99.90;;;;;;4983298;28;20196;-55
2023/09/13 01:50:56;;;;;;;28.50;21.73;;;17.90;99.90;;;;;;4989065;28;20205;-53
2023/09/13 01:53:26;;;;;;;29.17;20.13;;;;;;;;;;4984397;28;20221;-54
2023/09/13 01:55:52;;;;;;;31.43;21.57;;;17.90;99.90;;;;;;4978255;28;20197;-50
2023/09/13 01:58:19;;;;;;;26.57;20.77;;;18.00;99.90;;;;;;4994591;28;20760;-55
2023/09/13 02:00:46;;;;;;;30.83;21.70;;;18.00;99.90;;;;;;4987877;28;20275;-53
2023/09/13 02:03:15;;;;;;;27.47;20.43;;;18.00;99.90;;;;;;4962954;28;20197;-55
2023/09/13 02:05:42;;;;;;;28.60;20.97;;;17.90;99.90;;;;;;4989560;28;20250;-50
2023/09/13 02:08:09;;;;;;;29.80;20.97;;;18.00;99.90;;;;;;4987093;28;20201;-49
2023/09/13 02:10:36;;;;;;;31.57;20.93;;;18.00;99.90;;;;;;4981208;28;20201;-51
2023/09/13 02:13:03;;;;;;;29.77;21.67;;;18.00;99.90;;;;;;4991937;28;20606;-52
2023/09/13 02:15:31;;;;;;;31.13;21.83;;;18.00;99.90;;;;;;4992568;28;20224;-53
2023/09/13 02:17:57;;;;;;;30.53;21.43;;;18.00;99.90;;;;;;4970556;28;20225;-49
2023/09/13 02:20:26;;;;;;;28.13;20.90;;;18.00;99.90;;;;;;4994165;28;20916;-52
2023/09/13 02:22:52;;;;;;;32.53;22.10;;;18.00;99.90;;;;;;4990838;28;20583;-52
2023/09/13 02:25:19;;;;;;;32.73;22.47;;;18.00;99.90;;;;;;4982474;28;20454;-53
2023/09/13 02:27:46;;;;;;;34.57;21.83;;;18.00;99.90;;;;;;4985267;28;20252;-52
2023/09/13 02:30:13;;;;;;;29.80;20.90;;;18.00;99.90;;;;;;4984556;28;20295;-52
2023/09/13 02:32:40;;;;;;;32.87;22.00;;;18.00;99.90;;;;;;4965011;28;20224;-55
2023/09/13 02:35:08;;;;;;;31.90;22.03;;;18.00;99.90;;;;;;4983338;28;20236;-52
2023/09/13 02:37:36;;;;;;;32.50;21.70;;;18.00;99.90;;;;;;4990925;28;20315;-55
2023/09/13 02:40:05;;;;;;;32.97;22.53;;;18.10;99.90;;;;;;4977151;28;20272;-50
2023/09/13 02:42:32;;;;;;;30.10;21.80;;;18.10;99.90;;;;;;4983888;28;20270;-51
2023/09/13 02:44:59;;;;;;;31.10;21.73;;;18.10;99.90;;;;;;4989074;28;20212;-52
2023/09/13 02:47:26;;;;;;;28.70;20.50;;;18.10;99.90;;;;;;4971552;28;20205;-49
2023/09/13 02:49:53;;;;;;;30.80;21.00;;;18.00;99.90;;;;;;4982867;28;20614;-48
2023/09/13 02:52:28;;;;;;;29.83;21.30;;;18.10;99.90;;;;;;4982658;28;20946;-50
2023/09/13 02:54:57;;;;;;;29.60;20.53;;;18.10;99.90;;;;;;4988122;28;20216;-53
2023/09/13 02:57:25;;;;;;;27.03;18.37;;;18.10;99.90;;;;;;4980301;28;20875;-48
2023/09/13 02:59:52;;;;;;;27.60;18.97;;;18.10;99.90;;;;;;4979371;28;20216;-51
2023/09/13 03:02:20;;;;;;;25.10;18.67;;;18.10;99.90;;;;;;4984426;28;20208;-54
2023/09/13 03:04:50;;;;;;;24.50;17.97;;;18.10;99.90;;;;;;4968790;28;20220;-52
2023/09/13 03:07:17;;;;;;;24.77;18.10;;;18.10;99.90;;;;;;4991985;28;20181;-53
2023/09/13 03:09:45;;;;;;;23.47;17.40;;;18.10;99.90;;;;;;4995143;28;20212;-54
2023/09/13 03:12:13;;;;;;;25.00;18.27;;;18.10;99.90;;;;;;4986490;28;21008;-49
2023/09/13 03:14:40;;;;;;;21.30;15.70;;;18.10;99.90;;;;;;4995027;28;20225;-52
2023/09/13 03:17:07;;;;;;;21.97;14.43;;;18.00;99.90;;;;;;4992589;28;20299;-52
2023/09/13 03:19:34;;;;;;;16.60;13.80;;;18.00;99.90;;;;;;4968864;28;20210;-54
2023/09/13 03:22:01;;;;;;;18.87;13.00;;;17.90;99.90;;;;;;4989842;28;20224;-51
2023/09/13 03:24:28;;;;;;;19.73;12.93;;;18.00;99.90;;;;;;4991448;28;20213;-51
2023/09/13 03:26:56;;;;;;;15.83;12.20;;;;;;;;;;4989259;28;20197;-50
2023/09/13 03:29:26;;;;;;;15.57;11.77;;;17.80;99.90;;;;;;4980462;28;20202;-54
2023/09/13 03:31:54;;;;;;;14.50;11.37;;;;;;;;;;4991536;28;20201;-50
2023/09/13 03:34:24;;;;;;;12.53;11.17;;;;;;;;;;4954200;28;20534;-51
2023/09/13 03:36:55;;;;;;;14.93;11.07;;;;;;;;;;4988056;28;20225;-52
2023/09/13 03:39:22;;;;;;;15.67;11.20;;;17.80;99.90;;;;;;4986697;28;20224;-52
2023/09/13 03:41:49;;;;;;;12.37;10.40;;;17.90;99.90;;;;;;4989121;28;20212;-51
2023/09/13 03:44:15;;;;;;;10.00;8.70;;;17.80;99.90;;;;;;4978449;28;20275;-50
2023/09/13 03:46:44;;;;;;;9.37;7.90;;;17.70;99.90;;;;;;4998949;28;20208;-51
2023/09/13 03:49:10;;;;;;;9.43;7.27;;;17.60;99.90;;;;;;4985131;28;20197;-51
2023/09/13 03:51:37;;;;;;;11.43;7.53;;;17.70;99.90;;;;;;4985496;28;20201;-54
2023/09/13 03:54:04;;;;;;;13.27;7.87;;;17.60;99.90;;;;;;4995769;28;20308;-50
2023/09/13 03:56:31;;;;;;;16.50;8.73;;;17.70;99.90;;;;;;4973201;28;20245;-51
2023/09/13 03:58:58;;;;;;;13.43;7.60;;;17.80;99.90;;;;;;4975389;28;20671;-54
2023/09/13 04:01:25;;;;;;;10.87;7.93;;;17.50;99.90;;;;;;4971239;28;20205;-47
2023/09/13 04:03:53;;;;;;;10.47;7.60;;;17.60;99.90;;;;;;4987940;28;20212;-48
2023/09/13 04:06:20;;;;;;;13.30;8.47;;;17.50;99.90;;;;;;4959488;28;20847;-48
2023/09/13 04:08:47;;;;;;;12.90;8.13;;;17.20;99.90;;;;;;4985618;28;20205;-51
2023/09/13 04:11:14;;;;;;;23.13;7.10;;;17.30;99.90;;;;;;4986573;28;20197;-49
2023/09/13 04:13:41;;;;;;;13.73;7.07;;;17.20;99.90;;;;;;4995619;28;20221;-49
2023/09/13 04:16:08;;;;;;;9.37;6.30;;;17.20;99.90;;;;;;4988878;28;20622;-51
2023/09/13 04:18:36;;;;;;;7.37;6.40;;;16.40;99.90;;;;;;4977506;28;20931;-51
2023/09/13 04:21:04;;;;;;;8.10;5.23;;;17.30;99.90;;;;;;4955479;28;20306;-50
2023/09/13 04:23:31;;;;;;;13.37;6.57;;;17.10;99.90;;;;;;4974941;28;20228;-47
2023/09/13 04:25:59;;;;;;;8.70;5.23;;;17.30;99.90;;;;;;4992116;28;20204;-47
2023/09/13 04:28:26;;;;;;;13.80;5.23;;;16.90;99.90;;;;;;5006372;28;20295;-47
2023/09/13 04:30:53;;;;;;;8.30;4.40;;;;;;;;;;4979618;28;20586;-48
2023/09/13 04:33:47;;;;;;;7.17;4.50;;;16.70;99.90;;;;;;4965483;28;20230;-47
2023/09/13 04:36:15;;;;;;;5.77;4.03;;;16.20;99.90;;;;;;4959562;28;20719;-49
2023/09/13 04:38:44;;;;;;;4.77;4.13;;;;;;;;;;4983304;28;20207;-47
2023/09/13 04:41:13;;;;;;;5.43;3.80;;;16.70;99.90;;;;;;4985447;28;20197;-47
2023/09/13 04:43:40;;;;;;;8.13;3.80;;;16.70;99.90;;;;;;5007972;28;20290;-50
2023/09/13 04:46:07;;;;;;;3.93;3.53;;;16.70;99.90;;;;;;4983475;28;20229;-50
2023/09/13 04:48:35;;;;;;;5.03;2.87;;;16.70;99.90;;;;;;5000353;28;20939;-51
2023/09/13 04:51:04;;;;;;;2.73;2.50;;;16.60;99.90;;;;;;4989162;28;20314;-47
2023/09/13 04:53:33;;;;;;;2.70;2.50;;;16.50;99.90;;;;;;4962711;28;20744;-47
2023/09/13 04:56:01;;;;;;;2.20;2.00;;;16.50;99.90;;;;;;4984495;28;20212;-51
2023/09/13 04:58:30;;;;;;;2.57;2.37;;;16.40;99.90;;;;;;4979385;28;20217;-48
2023/09/13 05:00:57;;;;;;;2.67;2.13;;;;;;;;;;4972396;28;20215;-47
2023/09/13 05:03:24;;;;;;;1.93;1.83;;;16.30;99.90;;;;;;4983019;28;20563;-51
2023/09/13 05:05:51;;;;;;;2.30;2.10;;;16.30;99.90;;;;;;4973392;28;20628;-52
2023/09/13 05:08:19;;;;;;;2.47;2.10;;;16.30;99.90;;;;;;4958361;28;20201;-47
2023/09/13 05:10:46;;;;;;;2.30;1.87;;;16.30;99.90;;;;;;4985092;28;20194;-49
2023/09/13 05:13:14;;;;;;;2.03;1.90;;;;;;;;;;4976231;28;20251;-48
2023/09/13 05:15:45;;;;;;;10.80;2.20;;;16.20;99.90;;;;;;4979516;28;20225;-51
2023/09/13 05:18:12;;;;;;;4.40;1.80;;;16.20;99.90;;;;;;4983284;28;20201;-48
2023/09/13 05:20:39;;;;;;;5.47;1.90;;;;;;;;;;4982298;28;20656;-51
2023/09/13 05:23:06;;;;;;;3.13;1.73;;;16.50;99.90;;;;;;4962540;28;20838;-48
2023/09/13 05:25:34;;;;;;;7.50;1.93;;;16.10;99.90;;;;;;4986143;28;20229;-47
2023/09/13 05:28:02;;;;;;;5.43;2.10;;;16.10;99.90;;;;;;4980261;28;20263;-47
2023/09/13 05:30:33;;;;;;;2.93;2.20;;;16.10;99.90;;;;;;4987164;28;20197;-49
2023/09/13 05:33:00;;;;;;;5.60;1.80;;;16.50;99.90;;;;;;4974844;28;20296;-47
2023/09/13 05:35:30;;;;;;;1.90;1.77;;;;;;;;;;4996133;28;20710;-48
2023/09/13 05:37:57;;;;;;;2.80;1.30;;;16.50;99.90;;;;;;4971505;28;20283;-49
2023/09/13 05:40:24;;;;;;;2.53;1.33;;;16.00;99.90;;;;;;4979078;28;20279;-46
2023/09/13 05:42:52;;;;;;;4.10;1.40;;;;;;;;;;4986224;28;20252;-51
2023/09/13 05:45:19;;;;;;;2.30;1.60;;;16.00;99.90;;;;;;4988905;28;20635;-48
2023/09/13 05:47:49;;;;;;;4.67;2.30;;;16.10;99.90;;;;;;4975718;28;20276;-48
2023/09/13 05:50:16;;;;;;;1.20;1.10;;;16.30;99.90;;;;;;4979734;28;20291;-49
2023/09/13 05:52:43;;;;;;;1.83;1.60;;;16.00;99.90;;;;;;4988622;28;20243;-48
2023/09/13 05:55:10;;;;;;;1.30;1.20;;;16.10;99.90;;;;;;4955524;28;20453;-47
2023/09/13 05:57:37;;;;;;;1.00;0.90;;;15.90;99.90;;;;;;4985268;28;20232;-50
2023/09/13 06:00:07;;;;;;;1.63;0.87;;;15.90;99.90;;;;;;4981483;28;20210;-52
2023/09/13 06:02:38;;;;;;;1.30;0.83;;;16.00;99.90;;;;;;4973662;28;20248;-52
2023/09/13 06:05:06;;;;;;;0.70;0.70;;;16.00;99.90;;;;;;4983136;28;20272;-51
2023/09/13 06:07:32;;;;;;;1.83;0.80;;;15.90;99.90;;;;;;4972404;28;20263;-51
2023/09/13 06:10:00;;;;;;;0.50;0.50;;;15.90;99.90;;;;;;4955928;28;20245;-49
2023/09/13 06:12:27;;;;;;;2.70;1.30;;;15.90;99.90;;;;;;4971996;28;20205;-49
2023/09/13 06:14:55;;;;;;;2.63;1.20;;;15.80;99.90;;;;;;4991804;28;20224;-51
2023/09/13 06:17:24;;;;;;;3.67;1.40;;;15.70;99.90;;;;;;4995050;28;20201;-48
2023/09/13 06:19:50;;;;;;;3.27;1.20;;;15.70;99.90;;;;;;4978223;28;20197;-49
2023/09/13 06:22:18;;;;;;;2.30;1.53;;;15.60;99.90;;;;;;4987115;28;20225;-52
2023/09/13 06:24:45;;;;;;;3.47;2.00;;;15.70;99.90;;;;;;4948920;28;20905;-54
2023/09/13 06:27:11;;;;;;;5.20;1.70;;;15.60;99.90;;;;;;4958329;28;20315;-48
2023/09/13 06:29:38;;;;;;;4.03;2.10;;;15.70;99.90;;;;;;4981789;28;20268;-48
2023/09/13 06:32:06;;;;;;;4.63;2.30;;;15.70;99.90;;;;;;4981169;28;20193;-49
2023/09/13 06:34:34;;;;;;;5.27;2.70;;;15.70;99.90;;;;;;4980704;28;20237;-48
2023/09/13 06:37:02;;;;;;;4.53;2.30;;;15.50;99.90;;;;;;4987099;28;20544;-46
2023/09/13 06:39:29;;;;;;;3.97;2.60;;;15.70;99.90;;;;;;4985646;28;20193;-46
2023/09/13 06:41:56;;;;;;;2.90;2.50;;;15.70;99.90;;;;;;4958706;28;20606;-47
2023/09/13 06:44:28;;;;;;;5.40;2.57;;;15.60;99.90;;;;;;4962417;28;20229;-46
2023/09/13 06:47:01;;;;;;;1.97;1.87;;;15.60;99.90;;;;;;4986921;28;20258;-48
2023/09/13 06:49:29;;;;;;;5.07;2.47;;;15.40;99.90;;;;;;4977968;28;20283;-46
2023/09/13 06:52:01;;;;;;;5.37;2.57;;;15.60;99.90;;;;;;4985518;28;20196;-47
2023/09/13 06:54:45;;;;;;;4.03;2.10;;;15.50;99.90;;;;;;4983833;28;20638;-46
2023/09/13 06:57:25;;;;;;;4.03;2.07;;;;;;;;;;4960340;28;20680;-48
2023/09/13 07:00:11;;;;;;;5.83;2.10;;;15.50;99.90;;;;;;4971470;28;20201;-48
2023/09/13 07:02:44;;;;;;;3.53;1.90;;;15.50;99.90;;;;;;4985074;28;20292;-46
2023/09/13 07:05:31;;;;;;;5.80;2.10;;;15.50;99.90;;;;;;4977710;28;20209;-48
2023/09/13 07:08:01;;;;;;;4.70;2.40;;;15.50;99.90;;;;;;4973031;28;20212;-45
2023/09/13 07:10:29;;;;;;;5.93;2.70;;;15.40;99.90;;;;;;4981067;28;20723;-46
2023/09/13 07:13:37;;;;;;;9.17;2.20;;;15.40;99.90;;;;;;4955306;28;20313;-48
2023/09/13 07:16:07;;;;;;;6.50;2.50;;;15.50;99.90;;;;;;4969085;28;20961;-47
2023/09/13 07:18:44;;;;;;;7.40;2.57;;;;;;;;;;4977709;28;20217;-46
2023/09/13 07:21:33;;;;;;;8.03;2.70;;;;;;;;;;4984054;28;20280;-47
2023/09/13 07:27:11;;;;;;;6.00;1.83;;;15.50;99.90;;;;;;4978242;28;20216;-47
2023/09/13 07:32:40;;;;;;;3.30;2.43;;;15.50;99.90;;;;;;4971640;28;20308;-52
2023/09/13 07:35:20;;;;;;;5.37;1.80;;;15.50;99.90;;;;;;4975047;28;20306;-48
2023/09/13 07:37:56;;;;;;;4.37;2.50;;;15.50;99.90;;;;;;4978195;28;20193;-46
2023/09/13 07:41:01;;;;;;;5.50;2.50;;;15.50;99.90;;;;;;4978112;28;20213;-46
2023/09/13 07:43:48;;;;;;;5.67;2.33;;;15.40;99.90;;;;;;4968214;28;20220;-51
2023/09/13 07:49:25;;;;;;;5.80;2.10;;;15.40;99.90;;;;;;4978470;28;20208;-46
2023/09/13 07:52:06;;;;;;;4.13;2.17;;;15.40;99.90;;;;;;4976011;28;20946;-46
2023/09/13 07:54:44;;;;;;;4.97;2.13;;;15.50;99.90;;;;;;4974669;28;20221;-50
2023/09/13 08:06:04;;;;;;;7.63;2.07;;;15.40;99.90;;;;;;5078302;28;20206;-49
2023/09/13 08:08:37;;;;;;;6.03;2.23;;;15.30;99.90;;;;;;5097589;27;20193;-46
2023/09/13 08:14:43;;;;;;;3.00;2.00;;;15.30;99.90;;;;;;5076216;28;20221;-46
2023/09/13 08:20:40;;;;;;;5.00;1.73;;;;;;;;;;5088031;28;20197;-46
2023/09/13 08:23:16;;;;;;;5.13;1.43;;;15.30;99.90;;;;;;5097036;28;20254;-43
2023/09/13 08:25:48;;;;;;;6.97;1.63;;;15.30;99.90;;;;;;5090447;28;20208;-49
2023/09/13 08:31:35;;;;;;;6.67;1.97;;;15.40;99.90;;;;;;5077881;28;20212;-47
2023/09/13 08:34:32;;;;;;;6.27;2.00;;;15.40;99.90;;;;;;5079986;28;20209;-46
2023/09/13 08:37:13;;;;;;;9.73;2.00;;;;;;;;;;5078936;28;20258;-46
2023/09/13 08:49:26;;;;;;;5.73;1.80;;;15.50;99.90;;;;;;5084095;28;20269;-45
2023/09/13 08:52:28;;;;;;;1.97;1.67;;;15.50;99.90;;;;;;5088444;28;20919;-44
2023/09/13 08:55:41;;;;;;;5.27;1.60;;;15.50;99.90;;;;;;5088343;28;21360;-43
2023/09/13 08:58:45;;;;;;;4.43;1.70;;;15.60;99.90;;;;;;5080172;28;21009;-48
2023/09/13 09:01:30;;;;;;;5.90;1.90;;;15.60;99.90;;;;;;5075674;28;20282;-48
2023/09/13 09:07:07;;;;;;;5.33;1.57;;;15.50;99.90;;;;;;5078054;28;20210;-52
2023/09/13 09:09:46;;;;;;;7.43;1.87;;;15.50;99.90;;;;;;5090150;28;20190;-52
2023/09/13 09:12:41;;;;;;;3.83;1.57;;;;;;;;;;5078372;28;20194;-48
2023/09/13 09:15:13;;;;;;;3.87;1.53;;;;;;;;;;5079691;28;20221;-47
2023/09/13 09:17:45;;;;;;;6.53;1.90;;;15.60;99.90;;;;;;5060194;28;20205;-48
2023/09/13 09:20:13;;;;;;;4.93;1.97;;;15.60;99.90;;;;;;5068359;28;20437;-49
2023/09/13 09:22:44;;;;;;;6.27;2.10;;;15.90;99.90;;;;;;5076866;28;20198;-50
2023/09/13 09:25:14;;;;;;;3.57;2.03;;;15.80;99.90;;;;;;5081763;28;20225;-47
2023/09/13 09:28:02;;;;;;;5.53;1.80;;;16.20;99.90;;;;;;5076987;28;20206;-51
2023/09/13 09:30:33;;;;;;;7.33;2.00;;;;;;;;;;5083193;28;20214;-47
2023/09/13 09:33:10;;;;;;;8.33;2.30;;;16.10;99.90;;;;;;5062669;28;20205;-48
2023/09/13 09:35:37;;;;;;;5.40;1.93;;;17.40;99.90;;;;;;5074888;28;20213;-47
2023/09/13 09:38:29;;;;;;;4.83;1.77;;;16.10;99.90;;;;;;5070229;28;20206;-48
2023/09/13 09:41:01;;;;;;;6.30;2.03;;;16.20;99.90;;;;;;5079131;28;20205;-48
2023/09/13 09:43:38;;;;;;;7.47;1.80;;;15.80;99.90;;;;;;5073078;28;20182;-49
2023/09/13 09:46:11;;;;;;;6.83;2.10;;;16.10;99.90;;;;;;5083257;28;20228;-50
2023/09/13 09:49:05;;;;;;;7.20;1.97;;;16.00;99.90;;;;;;5065964;28;20683;-47
2023/09/13 09:51:40;;;;;;;7.07;2.50;;;16.00;99.90;;;;;;5068843;28;20205;-45
2023/09/13 09:54:08;;;;;;;7.90;2.10;;;16.20;99.90;;;;;;5077843;28;20225;-50
2023/09/13 09:56:52;;;;;;;9.90;2.80;;;16.70;99.90;;;;;;5082682;28;20190;-48
2023/09/13 09:59:43;;;;;;;8.57;1.73;;;16.70;99.90;;;;;;5070866;28;20264;-47
2023/09/13 10:05:08;;;;;;;7.10;2.30;;;16.10;99.90;;;;;;5054982;28;20226;-49
2023/09/13 10:07:54;;;;;;;5.80;1.97;;;16.70;99.90;;;;;;5070432;28;20298;-46
2023/09/13 10:10:39;;;;;;;3.73;1.67;;;16.10;99.90;;;;;;5071240;28;20213;-48
2023/09/13 10:13:13;;;;;;;4.63;2.10;;;16.60;99.90;;;;;;5082210;28;20190;-49
2023/09/13 10:15:42;;;;;;;6.10;2.17;;;16.40;99.90;;;;;;5067507;28;20205;-48
2023/09/13 10:18:27;;;;;;;5.37;2.23;;;16.20;99.90;;;;;;5074566;28;20186;-46
2023/09/13 10:20:58;;;;;;;5.90;1.80;;;16.30;99.90;;;;;;5056797;28;20281;-46
2023/09/13 10:23:45;;;;;;;6.10;2.20;;;16.30;99.90;;;;;;5077795;28;20210;-48
2023/09/13 10:26:32;;;;;;;6.43;2.30;;;16.50;99.90;;;;;;5077018;28;20277;-47
2023/09/13 10:29:09;;;;;;;5.70;2.50;;;16.30;99.90;;;;;;5077775;28;20190;-49
2023/09/13 10:31:43;;;;;;;5.20;2.30;;;;;;;;;;5077028;28;20197;-46
2023/09/13 10:34:19;;;;;;;5.37;2.43;;;;;;;;;;5056558;28;20634;-48
2023/09/13 10:37:34;;;;;;;7.77;2.13;;;16.40;99.90;;;;;;5072091;28;20616;-51
2023/09/13 10:40:20;;;;;;;5.83;1.97;;;16.40;99.90;;;;;;5070307;28;20867;-46
2023/09/13 10:42:48;;;;;;;4.47;1.87;;;16.40;99.90;;;;;;5082538;28;20197;-47
2023/09/13 10:45:18;;;;;;;4.00;1.93;;;16.30;99.90;;;;;;5073946;28;20309;-46
2023/09/13 10:47:47;;;;;;;4.87;2.43;;;16.40;99.90;;;;;;5082947;28;20214;-48
2023/09/13 10:50:15;;;;;;;6.93;1.80;;;16.40;99.90;;;;;;5053113;28;20207;-52
2023/09/13 10:52:44;;;;;;;3.63;1.67;;;15.90;99.90;;;;;;5076308;28;20201;-46
2023/09/13 10:55:12;;;;;;;6.10;1.60;;;16.50;99.90;;;;;;5066799;28;21035;-45
2023/09/13 10:57:41;;;;;;;4.07;2.30;;;16.90;99.90;;;;;;5082625;28;20199;-46
2023/09/13 11:00:10;;;;;;;7.57;2.70;;;16.10;99.90;;;;;;5077402;28;20213;-47
2023/09/13 11:02:39;;;;;;;2.97;1.60;;;16.70;99.90;;;;;;5073334;28;20190;-47
2023/09/13 11:05:06;;;;;;;6.03;1.67;;;16.70;99.90;;;;;;5060473;28;20304;-43
2023/09/13 11:07:33;;;;;;;5.63;2.17;;;16.80;99.90;;;;;;5071380;28;20205;-55
2023/09/13 11:10:11;;;;;;;5.90;2.53;;;16.50;99.90;;;;;;5079945;28;20195;-47
2023/09/13 11:12:39;;;;;;;4.47;2.13;;;16.20;99.90;;;;;;5072819;28;20197;-43
2023/09/13 11:15:13;;;;;;;5.30;2.03;;;16.50;99.90;;;;;;5081452;28;20267;-46
2023/09/13 11:17:43;;;;;;;9.10;2.57;;;16.50;99.90;;;;;;5070601;28;20347;-43
2023/09/13 11:20:29;;;;;;;7.57;2.23;;;16.00;99.90;;;;;;5081588;28;20214;-43
2023/09/13 11:23:05;;;;;;;6.53;2.03;;;16.20;99.90;;;;;;5070030;28;20216;-45
2023/09/13 11:25:36;;;;;;;4.60;1.97;;;16.80;99.90;;;;;;5073371;28;20294;-49
2023/09/13 11:28:08;;;;;;;4.33;1.63;;;16.30;99.90;;;;;;5073666;28;20206;-46
2023/09/13 11:30:49;;;;;;;3.60;1.60;;;16.30;99.90;;;;;;5077437;28;20197;-53
2023/09/13 11:33:17;;;;;;;6.27;1.97;;;16.30;99.90;;;;;;5073899;28;20254;-43
2023/09/13 11:35:45;;;;;;;3.07;1.60;;;16.30;99.90;;;;;;5059456;28;20812;-43
2023/09/13 11:38:12;;;;;;;4.10;1.83;;;16.00;99.90;;;;;;5080609;28;20431;-45
2023/09/13 11:40:45;;;;;;;9.00;1.80;;;16.20;99.90;;;;;;5066740;28;20222;-44
2023/09/13 11:43:12;;;;;;;7.13;2.73;;;16.20;99.90;;;;;;5072587;28;20201;-43
2023/09/13 11:45:40;;;;;;;3.40;1.80;;;16.10;99.90;;;;;;5071414;28;20255;-44
2023/09/13 11:48:08;;;;;;;6.27;1.83;;;16.10;99.90;;;;;;5070754;28;20205;-49
2023/09/13 11:50:44;;;;;;;3.97;1.97;;;16.00;99.90;;;;;;5069364;28;20281;-43
2023/09/13 11:53:16;;;;;;;6.10;1.40;;;16.00;99.90;;;;;;5061936;28;20201;-44
2023/09/13 11:55:49;;;;;;;5.23;1.50;;;15.90;99.90;;;;;;5070795;28;20200;-44
2023/09/13 11:58:17;;;;;;;5.10;1.60;;;15.80;99.90;;;;;;5073943;28;20216;-51
2023/09/13 12:00:44;;;;;;;5.23;1.93;;;15.70;99.90;;;;;;5067864;28;20217;-44
2023/09/13 12:03:16;;;;;;;3.93;1.37;;;15.70;99.90;;;;;;5074661;28;20567;-43
2023/09/13 12:05:44;;;;;;;8.03;1.97;;;15.60;99.90;;;;;;5081100;28;20193;-43
2023/09/13 12:08:37;;;;;;;4.10;1.53;;;15.50;99.90;;;;;;5060578;28;20690;-49
2023/09/13 12:11:12;;;;;;;5.50;1.73;;;15.50;99.90;;;;;;5067266;28;20282;-44
2023/09/13 12:13:58;;;;;;;3.63;1.50;;;15.30;99.90;;;;;;5071946;28;20322;-43
2023/09/13 12:16:31;;;;;;;8.40;2.00;;;15.30;99.90;;;;;;5078168;28;20194;-50
2023/09/13 12:19:11;;;;;;;3.40;1.70;;;15.20;99.90;;;;;;5072126;28;20284;-43
2023/09/13 12:21:54;;;;;;;4.77;1.80;;;15.20;99.90;;;;;;5070062;28;20888;-44
2023/09/13 12:24:31;;;;;;;6.57;1.63;;;15.20;99.90;;;;;;5058078;28;20718;-49
2023/09/13 12:27:11;;;;;;;4.00;2.23;;;15.50;99.90;;;;;;5064625;28;20714;-48
2023/09/13 12:29:48;;;;;;;3.73;1.87;;;15.50;99.90;;;;;;5067852;28;20336;-45
2023/09/13 12:32:36;;;;;;;7.67;2.10;;;15.10;99.90;;;;;;5066409;28;20715;-51
2023/09/13 12:35:25;;;;;;;5.80;1.90;;;15.10;99.90;;;;;;5064464;28;20333;-51
2023/09/13 12:38:02;;;;;;;8.97;1.77;;;15.10;99.90;;;;;;5069629;28;20190;-55
2023/09/13 12:40:48;;;;;;;5.60;1.80;;;15.00;99.90;;;;;;5078389;28;20213;-48
2023/09/13 12:43:23;;;;;;;3.23;1.70;;;15.10;99.90;;;;;;5059224;28;20671;-52
2023/09/13 12:45:56;;;;;;;2.20;1.40;;;15.00;99.90;;;;;;5079093;28;20272;-54
2023/09/13 12:48:43;;;;;;;4.00;1.57;;;15.00;99.90;;;;;;5081900;28;20214;-46
2023/09/13 12:51:13;;;;;;;4.60;1.90;;;14.90;99.90;;;;;;5064978;28;20195;-46
2023/09/13 12:53:44;;;;;;;4.03;1.67;;;14.90;99.90;;;;;;5059508;28;20218;-50
2023/09/13 12:56:29;;;;;;;4.53;2.07;;;14.90;99.90;;;;;;5079622;28;20896;-51
2023/09/13 12:59:02;;;;;;;2.90;1.47;;;15.00;99.90;;;;;;5060928;28;20626;-63
2023/09/13 13:01:37;;;;;;;3.43;1.80;;;14.90;99.90;;;;;;5084962;28;20723;-57
2023/09/13 13:04:13;;;;;;;2.30;1.60;;;14.90;99.90;;;;;;5081851;28;20237;-48
2023/09/13 13:07:02;;;;;;;3.83;1.50;;;14.90;99.90;;;;;;5077621;28;20204;-47
2023/09/13 13:09:37;;;;;;;4.47;1.80;;;15.00;99.90;;;;;;5064160;28;20197;-46
2023/09/13 13:12:20;;;;;;;3.13;1.43;;;15.10;99.90;;;;;;5065941;28;20200;-45
2023/09/13 13:14:56;;;;;;;3.40;1.77;;;15.10;99.90;;;;;;5075755;28;20217;-56
2023/09/13 13:17:46;;;;;;;4.60;1.63;;;15.20;99.90;;;;;;5081799;28;20182;-43
2023/09/13 13:20:16;;;;;;;2.70;1.70;;;15.20;99.90;;;;;;5077829;28;20209;-42
2023/09/13 13:22:49;;;;;;;4.17;1.30;;;15.20;99.90;;;;;;5077293;28;20289;-49
2023/09/13 13:25:21;;;;;;;4.17;1.40;;;15.30;99.90;;;;;;5058721;28;20213;-48
2023/09/13 13:27:48;;;;;;;4.23;1.60;;;15.40;99.90;;;;;;5072841;28;20198;-50
2023/09/13 13:30:15;;;;;;;3.97;1.60;;;15.40;99.90;;;;;;5071771;28;20194;-48
2023/09/13 13:32:43;;;;;;;3.43;1.57;;;15.40;99.90;;;;;;5081767;28;20205;-45
2023/09/13 13:35:10;;;;;;;2.20;1.60;;;15.40;99.90;;;;;;5080730;28;20937;-46
2023/09/13 13:37:37;;;;;;;4.00;1.50;;;15.50;99.90;;;;;;5077751;28;20216;-48
2023/09/13 13:40:04;;;;;;;3.47;1.30;;;15.50;99.90;;;;;;5060009;28;20292;-42
2023/09/13 13:42:32;;;;;;;5.87;1.33;;;15.50;99.90;;;;;;5083136;28;20198;-47
2023/09/13 13:44:59;;;;;;;3.80;1.57;;;15.60;99.90;;;;;;5066146;28;20305;-42
2023/09/13 13:47:26;;;;;;;5.07;2.00;;;15.70;99.90;;;;;;5082621;28;20198;-48
2023/09/13 13:49:53;;;;;;;3.43;1.37;;;15.90;99.90;;;;;;5083559;28;20187;-46
2023/09/13 13:52:20;;;;;;;2.47;1.20;;;16.00;99.90;;;;;;5060943;28;20201;-49
2023/09/13 13:54:47;;;;;;;3.40;1.20;;;16.10;99.90;;;;;;5051371;28;20217;-51
2023/09/13 13:57:14;;;;;;;2.63;1.23;;;16.20;99.90;;;;;;5077822;28;20197;-57